Time;durP1;ratioP1;P1;durP2;ratioP2;P2;SDS_P1;SDS_P2;PMS_P1;PMS_P2;Temp;Humidity;BMP_temperature;BMP_pressure;BME280_temperature;BME280_humidity;BME280_pressure;Samples;Min_cycle;Max_cycle;Signal;HPM_P1;HPM_P2
2022/03/13 00:00:18;;;;;;;32.95;20.48;;;;;;;;;;5054945;28;20094;-78
2022/03/13 00:02:45;;;;;;;27.20;17.17;;;;;;;;;;5054798;28;20111;-78
2022/03/13 00:05:16;;;;;;;24.48;15.65;;;;;;;;;;5054665;28;20040;-78
2022/03/13 00:07:47;;;;;;;23.83;14.90;;;;;;;;;;5054563;28;20435;-78
2022/03/13 00:10:18;;;;;;;22.38;13.93;;;;;;;;;;5054770;28;20033;-79
2022/03/13 00:12:46;;;;;;;25.90;16.00;;;;;;;;;;5054445;28;20020;-78
2022/03/13 00:15:14;;;;;;;33.78;19.50;;;;;;;;;;5053440;28;20095;-78
2022/03/13 00:17:40;;;;;;;36.97;22.35;;;;;;;;;;5054411;28;20431;-78
2022/03/13 00:20:08;;;;;;;38.83;22.25;;;;;;;;;;5054554;28;20037;-79
2022/03/13 00:22:35;;;;;;;37.50;21.83;;;;;;;;;;5054585;28;20021;-78
2022/03/13 00:25:02;;;;;;;42.33;24.90;;;;;;;;;;5054279;28;20033;-78
2022/03/13 00:27:31;;;;;;;38.53;22.05;;;;;;;;;;5054222;28;20118;-78
2022/03/13 00:29:57;;;;;;;39.33;24.42;;;;;;;;;;5054128;28;20509;-78
2022/03/13 00:32:23;;;;;;;44.05;24.58;;;;;;;;;;5054841;28;20024;-78
2022/03/13 00:34:50;;;;;;;37.25;21.77;;;;;;;;;;5055251;28;20032;-78
2022/03/13 00:37:17;;;;;;;40.65;23.50;;;;;;;;;;5054556;28;20029;-78
2022/03/13 00:39:44;;;;;;;46.30;26.52;;;;;;;;;;5055074;28;20051;-78
2022/03/13 00:42:13;;;;;;;47.63;24.48;;;;;;;;;;5054997;28;20384;-78
2022/03/13 00:44:40;;;;;;;41.55;23.10;;;;;;;;;;5055057;28;20040;-78
2022/03/13 00:47:06;;;;;;;40.50;23.67;;;;;;;;;;5054941;28;20031;-78
2022/03/13 00:49:33;;;;;;;52.58;26.30;;;;;;;;;;5054870;28;20028;-78
2022/03/13 00:51:59;;;;;;;41.88;20.88;;;;;;;;;;5054750;28;20057;-78
2022/03/13 00:54:26;;;;;;;28.80;15.90;;;;;;;;;;5054834;28;20124;-78
2022/03/13 00:56:53;;;;;;;26.27;15.20;;;;;;;;;;5054759;28;20017;-78
2022/03/13 00:59:19;;;;;;;22.38;13.52;;;;;;;;;;5054905;28;20032;-78
2022/03/13 01:01:46;;;;;;;25.88;13.18;;;;;;;;;;5054764;28;20021;-78
2022/03/13 01:04:12;;;;;;;22.42;14.88;;;;;;;;;;5054645;28;20040;-78
2022/03/13 01:06:40;;;;;;;25.83;17.02;;;;;;;;;;5054526;28;20032;-78
2022/03/13 01:09:06;;;;;;;26.00;11.88;;;;;;;;;;5054632;28;20032;-78
2022/03/13 01:11:32;;;;;;;21.85;12.15;;;;;;;;;;5054520;28;20032;-78
2022/03/13 01:13:58;;;;;;;20.00;10.73;;;;;;;;;;5054679;28;20059;-78
2022/03/13 01:16:30;;;;;;;19.48;10.60;;;;;;;;;;5054694;28;20060;-78
2022/03/13 01:19:00;;;;;;;22.27;13.30;;;;;;;;;;5055048;28;20025;-79
2022/03/13 01:21:26;;;;;;;21.45;12.75;;;;;;;;;;5055225;28;20036;-78
2022/03/13 01:24:02;;;;;;;23.60;14.10;;;;;;;;;;5055262;28;20081;-79
2022/03/13 01:26:29;;;;;;;26.95;15.75;;;;;;;;;;5054018;28;20047;-79
2022/03/13 01:28:57;;;;;;;28.73;16.13;;;;;;;;;;5055044;28;20021;-79
2022/03/13 01:31:42;;;;;;;23.55;15.02;;;;;;;;;;5054867;28;20032;-79
2022/03/13 01:34:08;;;;;;;;;;;;;;;;;;5055106;28;20446;-79
2022/03/13 01:36:35;;;;;;;22.85;14.13;;;;;;;;;;5054620;28;19909;-79
2022/03/13 01:39:01;;;;;;;20.42;12.30;;;;;;;;;;5054273;28;20421;-76
2022/03/13 01:41:28;;;;;;;22.45;12.57;;;;;;;;;;5054065;28;20052;-76
2022/03/13 01:43:55;;;;;;;20.77;12.02;;;;;;;;;;5052639;28;20025;-76
2022/03/13 01:46:21;;;;;;;16.98;9.77;;;;;;;;;;5053679;28;20456;-76
2022/03/13 01:49:06;;;;;;;19.48;10.82;;;;;;;;;;5053879;28;20104;-77
2022/03/13 01:51:32;;;;;;;;;;;;;;;;;;5054138;28;20512;-77
2022/03/13 01:54:01;;;;;;;18.30;11.18;;;;;;;;;;5053753;28;19951;-77
2022/03/13 01:56:29;;;;;;;23.17;12.52;;;;;;;;;;5053612;28;20025;-77
2022/03/13 01:58:55;;;;;;;30.98;16.92;;;;;;;;;;5053671;28;20028;-77
2022/03/13 02:01:22;;;;;;;44.95;22.90;;;;;;;;;;5052085;28;20025;-77
2022/03/13 02:03:48;;;;;;;28.50;16.83;;;;;;;;;;5052347;28;20472;-77
2022/03/13 02:06:15;;;;;;;25.88;14.82;;;;;;;;;;5052350;28;20439;-77
2022/03/13 02:08:41;;;;;;;31.83;18.52;;;;;;;;;;5051941;28;20036;-77
2022/03/13 02:11:08;;;;;;;34.65;20.98;;;;;;;;;;5053334;28;20200;-77
2022/03/13 02:13:36;;;;;;;55.42;31.95;;;;;;;;;;5054223;28;20412;-77
2022/03/13 02:16:02;;;;;;;36.58;22.33;;;;;;;;;;5053389;28;20029;-77
2022/03/13 02:18:28;;;;;;;32.05;20.13;;;;;;;;;;5052394;28;20021;-77
2022/03/13 02:20:55;;;;;;;29.45;17.30;;;;;;;;;;5053632;28;20055;-77
2022/03/13 02:23:22;;;;;;;26.58;17.00;;;;;;;;;;5053303;28;20427;-77
2022/03/13 02:25:49;;;;;;;31.75;17.83;;;;;;;;;;5053296;28;20538;-76
2022/03/13 02:28:15;;;;;;;47.63;27.30;;;;;;;;;;5053504;28;20028;-77
2022/03/13 02:30:41;;;;;;;29.40;15.88;;;;;;;;;;5053174;28;20029;-76
2022/03/13 02:33:07;;;;;;;47.78;28.90;;;;;;;;;;5053260;28;20131;-76
2022/03/13 02:35:34;;;;;;;44.78;27.88;;;;;;;;;;5053129;28;20435;-76
2022/03/13 02:38:00;;;;;;;48.83;28.75;;;;;;;;;;5053702;28;20090;-77
2022/03/13 02:40:26;;;;;;;38.15;23.17;;;;;;;;;;5053205;28;20109;-76
2022/03/13 02:42:52;;;;;;;31.63;19.08;;;;;;;;;;5053189;28;20086;-77
2022/03/13 02:45:29;;;;;;;32.42;18.08;;;;;;;;;;5052991;28;20517;-77
2022/03/13 02:47:55;;;;;;;31.33;18.77;;;;;;;;;;5053114;28;20511;-76
2022/03/13 02:50:22;;;;;;;28.70;17.08;;;;;;;;;;5053252;28;20032;-76
2022/03/13 02:52:49;;;;;;;25.13;15.93;;;;;;;;;;5052969;28;20060;-77
2022/03/13 02:55:15;;;;;;;26.48;15.95;;;;;;;;;;5053371;28;20033;-76
2022/03/13 02:57:41;;;;;;;25.92;16.08;;;;;;;;;;5053002;28;20021;-76
2022/03/13 03:00:08;;;;;;;25.25;14.77;;;;;;;;;;5053151;28;20032;-76
2022/03/13 03:02:35;;;;;;;26.27;16.50;;;;;;;;;;5056381;28;20025;-76
2022/03/13 03:05:06;;;;;;;37.17;22.05;;;;;;;;;;5055495;28;20033;-77
2022/03/13 03:07:32;;;;;;;27.60;16.90;;;;;;;;;;5056761;28;20021;-76
2022/03/13 03:09:58;;;;;;;28.35;17.08;;;;;;;;;;5055501;28;20033;-77
2022/03/13 03:12:25;;;;;;;23.85;15.32;;;;;;;;;;5057142;28;20029;-77
2022/03/13 03:14:51;;;;;;;20.88;12.75;;;;;;;;;;5056707;28;20021;-76
2022/03/13 03:17:17;;;;;;;23.23;14.45;;;;;;;;;;5056606;28;20033;-77
2022/03/13 03:19:43;;;;;;;25.60;15.32;;;;;;;;;;5056666;28;20443;-77
2022/03/13 03:22:09;;;;;;;30.70;18.77;;;;;;;;;;5056473;28;20380;-76
2022/03/13 03:24:35;;;;;;;25.23;15.75;;;;;;;;;;5056436;28;20460;-77
2022/03/13 03:27:01;;;;;;;27.42;16.20;;;;;;;;;;5056531;28;20021;-77
2022/03/13 03:29:29;;;;;;;22.17;14.93;;;;;;;;;;5056419;28;20511;-77
2022/03/13 03:31:56;;;;;;;20.42;13.50;;;;;;;;;;5056597;28;20045;-78
2022/03/13 03:34:23;;;;;;;26.58;14.82;;;;;;;;;;5056312;28;20032;-77
2022/03/13 03:36:51;;;;;;;22.58;13.73;;;;;;;;;;5056327;28;20036;-77
2022/03/13 03:39:18;;;;;;;19.90;11.80;;;;;;;;;;5056358;28;20086;-77
2022/03/13 03:41:45;;;;;;;18.05;10.98;;;;;;;;;;5056380;28;20472;-77
2022/03/13 03:44:11;;;;;;;16.10;9.68;;;;;;;;;;5056024;28;20039;-77
2022/03/13 03:46:37;;;;;;;16.27;9.35;;;;;;;;;;5054914;28;20026;-77
2022/03/13 03:49:04;;;;;;;17.33;10.10;;;;;;;;;;5056037;28;20092;-77
2022/03/13 03:51:30;;;;;;;15.43;9.70;;;;;;;;;;5055771;28;20137;-77
2022/03/13 03:53:56;;;;;;;16.10;10.13;;;;;;;;;;5055976;28;20029;-77
2022/03/13 03:56:22;;;;;;;22.35;12.80;;;;;;;;;;5056005;28;20160;-78
2022/03/13 03:58:48;;;;;;;20.95;12.02;;;;;;;;;;5056016;28;20060;-78
2022/03/13 04:01:15;;;;;;;20.08;12.45;;;;;;;;;;5055886;28;20025;-77
2022/03/13 04:03:41;;;;;;;17.63;11.20;;;;;;;;;;5055754;28;20060;-77
2022/03/13 04:06:07;;;;;;;17.60;11.50;;;;;;;;;;5055661;28;20037;-77
2022/03/13 04:08:34;;;;;;;13.15;9.00;;;;;;;;;;5055820;28;20021;-78
2022/03/13 04:11:00;;;;;;;14.20;8.93;;;;;;;;;;5055742;28;20025;-78
2022/03/13 04:13:28;;;;;;;18.70;9.95;;;;;;;;;;5055662;28;20105;-78
2022/03/13 04:15:55;;;;;;;16.42;9.95;;;;;;;;;;5055647;28;20033;-78
2022/03/13 04:18:21;;;;;;;18.63;11.85;;;;;;;;;;5055476;28;20033;-78
2022/03/13 04:20:47;;;;;;;20.92;11.40;;;;;;;;;;5055668;28;20033;-78
2022/03/13 04:23:13;;;;;;;18.08;12.15;;;;;;;;;;5055574;28;20033;-78
2022/03/13 04:25:39;;;;;;;34.50;21.13;;;;;;;;;;5055068;28;20041;-78
2022/03/13 04:28:08;;;;;;;23.90;14.43;;;;;;;;;;5055565;28;20024;-78
2022/03/13 04:30:36;;;;;;;26.00;15.60;;;;;;;;;;5055116;28;20503;-78
2022/03/13 04:33:02;;;;;;;19.83;11.63;;;;;;;;;;5055184;28;20487;-78
2022/03/13 04:35:28;;;;;;;18.67;11.95;;;;;;;;;;5055183;28;20025;-78
2022/03/13 04:37:54;;;;;;;15.88;9.82;;;;;;;;;;5055075;28;20494;-78
2022/03/13 04:40:20;;;;;;;20.00;11.07;;;;;;;;;;5055124;28;20025;-78
2022/03/13 04:42:46;;;;;;;19.17;10.75;;;;;;;;;;5054980;28;20029;-78
2022/03/13 04:45:13;;;;;;;16.33;10.88;;;;;;;;;;5054823;28;20543;-77
2022/03/13 04:47:39;;;;;;;20.15;11.70;;;;;;;;;;5054891;28;20112;-78
2022/03/13 04:50:05;;;;;;;19.75;10.73;;;;;;;;;;5053559;28;20391;-78
2022/03/13 04:52:31;;;;;;;16.50;10.98;;;;;;;;;;5053354;28;20053;-78
2022/03/13 04:54:58;;;;;;;27.55;15.60;;;;;;;;;;5054833;28;20025;-78
2022/03/13 04:57:24;;;;;;;19.38;10.63;;;;;;;;;;5054712;28;20036;-78
2022/03/13 04:59:50;;;;;;;20.10;12.20;;;;;;;;;;5053356;28;20029;-78
2022/03/13 05:02:16;;;;;;;19.58;12.73;;;;;;;;;;5054889;28;20380;-78
2022/03/13 05:04:43;;;;;;;30.08;15.88;;;;;;;;;;5054696;28;20025;-78
2022/03/13 05:07:09;;;;;;;32.42;17.55;;;;;;;;;;5053208;28;20487;-78
2022/03/13 05:09:36;;;;;;;30.98;19.08;;;;;;;;;;5054601;28;20120;-78
2022/03/13 05:12:04;;;;;;;25.33;15.25;;;;;;;;;;5054468;28;20025;-78
2022/03/13 05:14:31;;;;;;;23.83;14.00;;;;;;;;;;5054292;28;20028;-78
2022/03/13 05:16:58;;;;;;;21.88;12.70;;;;;;;;;;5054389;28;20543;-78
2022/03/13 05:19:24;;;;;;;21.48;12.82;;;;;;;;;;5053136;28;20119;-78
2022/03/13 05:21:50;;;;;;;18.55;12.52;;;;;;;;;;5054333;28;20033;-78
2022/03/13 05:24:16;;;;;;;17.38;11.05;;;;;;;;;;5052398;28;20028;-78
2022/03/13 05:26:44;;;;;;;27.63;17.75;;;;;;;;;;5054271;28;20033;-78
2022/03/13 05:29:10;;;;;;;34.10;21.27;;;;;;;;;;5054013;28;20029;-78
2022/03/13 05:31:36;;;;;;;40.15;22.90;;;;;;;;;;5054229;28;20062;-78
2022/03/13 05:34:02;;;;;;;38.35;21.73;;;;;;;;;;5054003;28;20087;-78
2022/03/13 05:36:28;;;;;;;34.72;19.90;;;;;;;;;;5054049;28;20143;-78
2022/03/13 05:38:54;;;;;;;40.08;21.88;;;;;;;;;;5054236;28;20113;-78
2022/03/13 05:41:22;;;;;;;37.13;20.85;;;;;;;;;;5054403;28;20399;-78
2022/03/13 05:43:48;;;;;;;39.22;21.50;;;;;;;;;;5053812;28;20078;-78
2022/03/13 05:46:14;;;;;;;29.52;17.38;;;;;;;;;;5053782;28;20107;-78
2022/03/13 05:48:40;;;;;;;26.35;15.30;;;;;;;;;;5053013;28;20095;-78
2022/03/13 05:51:07;;;;;;;22.23;14.95;;;;;;;;;;5053549;28;20112;-78
2022/03/13 05:53:33;;;;;;;30.02;18.50;;;;;;;;;;5053739;28;20117;-78
2022/03/13 05:55:59;;;;;;;29.75;18.50;;;;;;;;;;5053664;28;20484;-78
2022/03/13 05:58:25;;;;;;;28.08;16.10;;;;;;;;;;5053689;28;20028;-78
2022/03/13 06:01:03;;;;;;;27.35;15.50;;;;;;;;;;5053631;28;20025;-78
2022/03/13 06:03:29;;;;;;;30.15;15.40;;;;;;;;;;5053596;28;20044;-78
2022/03/13 06:05:56;;;;;;;34.28;19.17;;;;;;;;;;5053452;28;20037;-78
2022/03/13 06:08:22;;;;;;;30.73;16.60;;;;;;;;;;5053870;28;20111;-78
2022/03/13 06:10:48;;;;;;;33.95;19.02;;;;;;;;;;5053322;28;20029;-78
2022/03/13 06:13:15;;;;;;;27.55;17.52;;;;;;;;;;5052189;28;20476;-78
2022/03/13 06:15:41;;;;;;;32.92;20.38;;;;;;;;;;5053489;28;20480;-78
2022/03/13 06:18:08;;;;;;;29.02;16.90;;;;;;;;;;5053588;28;20479;-78
2022/03/13 06:20:34;;;;;;;36.35;19.35;;;;;;;;;;5053394;28;20025;-78
2022/03/13 06:23:01;;;;;;;31.60;19.13;;;;;;;;;;5053297;28;20056;-78
2022/03/13 06:25:28;;;;;;;27.73;16.77;;;;;;;;;;5053227;28;20033;-78
2022/03/13 06:27:54;;;;;;;28.13;16.95;;;;;;;;;;5053256;28;20491;-78
2022/03/13 06:30:21;;;;;;;28.35;18.92;;;;;;;;;;5053198;28;20025;-78
2022/03/13 06:32:47;;;;;;;27.77;17.40;;;;;;;;;;5053182;28;20021;-79
2022/03/13 06:35:14;;;;;;;31.52;19.38;;;;;;;;;;5053079;28;20040;-79
2022/03/13 06:37:40;;;;;;;27.98;19.08;;;;;;;;;;5056922;28;20029;-78
2022/03/13 06:40:09;;;;;;;24.98;14.80;;;;;;;;;;5057420;28;20075;-79
2022/03/13 06:42:35;;;;;;;27.77;18.35;;;;;;;;;;5057463;28;20082;-78
2022/03/13 06:45:01;;;;;;;31.92;19.38;;;;;;;;;;5056885;28;20468;-78
2022/03/13 06:47:27;;;;;;;67.50;35.92;;;;;;;;;;5057060;28;20029;-78
2022/03/13 06:49:53;;;;;;;84.13;43.35;;;;;;;;;;5057118;28;20057;-78
2022/03/13 06:52:20;;;;;;;55.67;33.38;;;;;;;;;;5056858;28;20098;-79
2022/03/13 06:54:46;;;;;;;45.03;27.05;;;;;;;;;;5056996;28;20029;-79
2022/03/13 06:57:16;;;;;;;44.28;27.42;;;;;;;;;;5057076;28;20021;-79
2022/03/13 06:59:43;;;;;;;42.70;24.65;;;;;;;;;;5056863;28;20067;-79
2022/03/13 07:02:10;;;;;;;33.65;23.42;;;;;;;;;;5056990;28;20025;-78
2022/03/13 07:04:36;;;;;;;58.97;31.17;;;;;;;;;;5055443;28;20472;-78
2022/03/13 07:07:03;;;;;;;53.10;26.95;;;;;;;;;;5056711;28;20029;-78
2022/03/13 07:09:29;;;;;;;49.58;27.45;;;;;;;;;;5056750;28;20029;-78
2022/03/13 07:11:55;;;;;;;50.80;27.90;;;;;;;;;;5056796;28;20430;-78
2022/03/13 07:14:21;;;;;;;36.53;22.20;;;;;;;;;;5056857;28;20036;-78
2022/03/13 07:17:06;;;;;;;45.38;23.23;;;;;;;;;;5056586;28;20029;-78
2022/03/13 07:19:32;;;;;;;45.03;23.58;;;;;;;;;;5056331;28;20032;-79
2022/03/13 07:21:58;;;;;;;47.90;25.15;;;;;;;;;;5056628;28;20036;-79
2022/03/13 07:24:24;;;;;;;50.00;25.92;;;;;;;;;;5056434;28;20021;-79
2022/03/13 07:26:50;;;;;;;45.05;26.83;;;;;;;;;;5056487;28;20029;-79
2022/03/13 07:29:17;;;;;;;49.22;26.15;;;;;;;;;;5054901;28;20025;-79
2022/03/13 07:31:43;;;;;;;41.22;25.15;;;;;;;;;;5056403;28;20064;-78
2022/03/13 07:34:09;;;;;;;29.20;19.38;;;;;;;;;;5056481;28;20099;-79
2022/03/13 07:36:35;;;;;;;21.88;16.25;;;;;;;;;;5056191;28;20495;-79
2022/03/13 07:39:02;;;;;;;27.30;16.85;;;;;;;;;;5056344;28;20561;-79
2022/03/13 07:41:28;;;;;;;29.25;15.27;;;;;;;;;;5056235;28;20108;-79
2022/03/13 07:43:54;;;;;;;27.75;14.50;;;;;;;;;;5056449;28;20036;-78
2022/03/13 07:46:20;;;;;;;34.10;13.52;;;;;;;;;;5055766;28;20123;-78
2022/03/13 07:48:47;;;;;;;13.43;9.55;;;;;;;;;;5055862;28;20057;-78
2022/03/13 07:51:13;;;;;;;20.27;11.88;;;;;;;;;;5055827;28;20036;-78
2022/03/13 07:53:39;;;;;;;17.00;11.20;;;;;;;;;;5055091;28;20112;-78
2022/03/13 07:56:06;;;;;;;18.65;10.77;;;;;;;;;;5054561;28;20036;-79
2022/03/13 07:58:32;;;;;;;16.35;11.77;;;;;;;;;;5055902;28;20078;-79
2022/03/13 08:00:59;;;;;;;17.15;10.43;;;;;;;;;;5055782;28;20029;-78
2022/03/13 08:03:34;;;;;;;17.05;10.95;;;;;;;;;;5055795;28;20108;-78
2022/03/13 08:06:00;;;;;;;17.33;11.65;;;;;;;;;;5054328;28;20037;-79
2022/03/13 08:08:26;;;;;;;23.85;13.10;;;;;;;;;;5055917;28;20061;-78
2022/03/13 08:10:52;;;;;;;17.35;10.90;;;;;;;;;;5054547;28;20186;-79
2022/03/13 08:13:18;;;;;;;17.98;11.35;;;;;;;;;;5055658;28;20100;-79
2022/03/13 08:15:45;;;;;;;13.93;10.32;;;;;;;;;;5055455;28;20025;-78
2022/03/13 08:18:12;;;;;;;15.90;9.70;;;;;;;;;;5055457;28;20375;-78
2022/03/13 08:20:38;;;;;;;14.02;10.05;;;;;;;;;;5055428;28;20116;-79
2022/03/13 08:23:05;;;;;;;18.55;12.15;;;;;;;;;;5054251;28;20029;-78
2022/03/13 08:25:31;;;;;;;16.88;10.50;;;;;;;;;;5055391;28;20033;-78
2022/03/13 08:27:57;;;;;;;12.07;8.70;;;;;;;;;;5055914;28;20025;-79
2022/03/13 08:30:23;;;;;;;13.52;8.80;;;;;;;;;;5055294;28;20032;-78
2022/03/13 08:32:50;;;;;;;13.43;8.75;;;;;;;;;;5055281;28;20035;-78
2022/03/13 08:35:17;;;;;;;14.07;9.13;;;;;;;;;;5054965;28;20056;-78
2022/03/13 08:37:44;;;;;;;13.50;9.68;;;;;;;;;;5055141;28;20029;-78
2022/03/13 08:40:11;;;;;;;11.55;8.88;;;;;;;;;;5055115;28;20468;-78
2022/03/13 08:42:38;;;;;;;15.48;9.27;;;;;;;;;;5053818;28;20074;-79
2022/03/13 08:45:05;;;;;;;12.77;9.40;;;;;;;;;;5055009;28;20079;-78
2022/03/13 08:47:31;;;;;;;12.60;9.00;;;;;;;;;;5054875;28;20033;-78
2022/03/13 08:49:57;;;;;;;13.23;9.45;;;;;;;;;;5055042;28;20037;-78
2022/03/13 08:52:23;;;;;;;13.95;9.27;;;;;;;;;;5054784;28;20057;-78
2022/03/13 08:54:49;;;;;;;11.77;7.57;;;;;;;;;;5053542;28;20025;-78
2022/03/13 08:57:15;;;;;;;11.63;7.85;;;;;;;;;;5055149;28;20085;-78
2022/03/13 08:59:41;;;;;;;13.68;8.63;;;;;;;;;;5053862;28;20032;-79
2022/03/13 09:02:09;;;;;;;11.90;8.38;;;;;;;;;;5054773;28;20432;-79
2022/03/13 09:04:35;;;;;;;11.90;8.57;;;;;;;;;;5054402;28;20032;-79
2022/03/13 09:07:02;;;;;;;16.45;10.75;;;;;;;;;;5054673;28;20439;-79
2022/03/13 09:09:28;;;;;;;15.90;10.88;;;;;;;;;;5054486;28;20021;-78
2022/03/13 09:11:54;;;;;;;14.15;9.30;;;;;;;;;;5054481;28;20397;-79
2022/03/13 09:14:21;;;;;;;12.27;8.60;;;;;;;;;;5054452;28;20029;-79
2022/03/13 09:16:47;;;;;;;14.20;9.30;;;;;;;;;;5054630;28;20055;-79
2022/03/13 09:19:14;;;;;;;15.68;10.30;;;;;;;;;;5054325;28;20461;-79
2022/03/13 09:21:40;;;;;;;17.95;11.65;;;;;;;;;;5054124;28;20090;-79
2022/03/13 09:24:07;;;;;;;37.58;23.65;;;;;;;;;;5054320;28;20033;-79
2022/03/13 09:26:39;;;;;;;16.88;11.27;;;;;;;;;;5053886;28;20037;-79
2022/03/13 09:29:06;;;;;;;13.38;9.52;;;;;;;;;;5054128;28;20024;-81
2022/03/13 09:31:32;;;;;;;13.98;9.00;;;;;;;;;;5054024;28;20025;-81
2022/03/13 09:33:58;;;;;;;13.90;8.48;;;;;;;;;;5054129;28;20029;-79
2022/03/13 09:36:25;;;;;;;12.73;7.80;;;;;;;;;;5053083;28;20083;-79
2022/03/13 09:38:51;;;;;;;13.43;9.70;;;;;;;;;;5053963;28;20460;-79
2022/03/13 09:41:17;;;;;;;15.93;9.50;;;;;;;;;;5053992;28;20053;-79
2022/03/13 09:43:44;;;;;;;16.80;9.65;;;;;;;;;;5054149;28;20044;-79
2022/03/13 09:46:10;;;;;;;16.70;10.88;;;;;;;;;;5053741;28;20055;-79
2022/03/13 09:48:37;;;;;;;29.58;20.50;;;;;;;;;;5052757;28;20087;-80
2022/03/13 09:51:04;;;;;;;19.65;13.43;;;;;;;;;;5053731;28;20413;-80
2022/03/13 09:53:37;;;;;;;19.35;12.35;;;;;;;;;;5053793;28;20114;-79
2022/03/13 09:56:04;;;;;;;14.52;9.68;;;;;;;;;;5052491;28;20117;-79
2022/03/13 09:58:32;;;;;;;13.35;9.10;;;;;;;;;;5053565;28;20102;-80
2022/03/13 10:00:59;;;;;;;25.58;15.40;;;;;;;;;;5053981;28;20025;-80
2022/03/13 10:03:25;;;;;;;19.20;12.13;;;;;;;;;;5053627;28;20036;-79
2022/03/13 10:05:53;;;;;;;16.27;11.18;;;;;;;;;;5053507;28;20060;-79
2022/03/13 10:08:20;;;;;;;13.77;8.48;;;;;;;;;;5053636;28;20102;-79
2022/03/13 10:10:47;;;;;;;12.00;9.70;;;;;;;;;;5053536;28;20040;-78
2022/03/13 10:13:15;;;;;;;13.18;7.93;;;;;;;;;;5053603;28;20025;-79
2022/03/13 10:15:48;;;;;;;18.73;10.38;;;;;;;;;;5053296;28;20562;-79
2022/03/13 10:18:15;;;;;;;16.58;10.35;;;;;;;;;;5053353;28;20032;-79
2022/03/13 10:20:43;;;;;;;15.52;10.50;;;;;;;;;;5053259;28;20025;-79
2022/03/13 10:23:16;;;;;;;15.43;10.95;;;;;;;;;;5053669;28;20025;-78
2022/03/13 10:25:42;;;;;;;14.90;10.27;;;;;;;;;;5051774;28;20033;-78
2022/03/13 10:28:12;;;;;;;17.33;10.80;;;;;;;;;;5053457;28;20056;-79
2022/03/13 10:30:38;;;;;;;13.02;9.48;;;;;;;;;;5053329;28;20025;-79
2022/03/13 10:33:06;;;;;;;12.48;9.07;;;;;;;;;;5053354;28;20523;-79
2022/03/13 10:35:32;;;;;;;13.90;9.10;;;;;;;;;;5051841;28;20040;-79
2022/03/13 10:37:58;;;;;;;12.55;8.38;;;;;;;;;;5053656;28;20025;-80
2022/03/13 10:40:25;;;;;;;12.40;8.75;;;;;;;;;;5053223;28;20484;-80
2022/03/13 10:42:53;;;;;;;13.20;9.82;;;;;;;;;;5053228;28;20056;-80
2022/03/13 10:45:38;;;;;;;13.27;9.60;;;;;;;;;;5053032;28;20067;-79
2022/03/13 10:48:18;;;;;;;12.27;9.27;;;;;;;;;;5053177;28;20029;-79
2022/03/13 10:50:45;;;;;;;11.52;8.10;;;;;;;;;;5053066;28;20028;-79
2022/03/13 10:53:15;;;;;;;10.45;8.45;;;;;;;;;;5053114;28;20551;-80
2022/03/13 10:55:44;;;;;;;11.82;8.25;;;;;;;;;;5052995;28;20572;-80
2022/03/13 10:58:11;;;;;;;12.82;7.82;;;;;;;;;;5053007;28;20100;-80
2022/03/13 11:00:38;;;;;;;10.30;7.25;;;;;;;;;;5052951;28;20029;-80
2022/03/13 11:03:11;;;;;;;13.73;8.90;;;;;;;;;;5053075;28;20472;-79
2022/03/13 11:05:38;;;;;;;10.85;7.72;;;;;;;;;;5052855;28;20033;-79
2022/03/13 11:08:04;;;;;;;11.38;8.60;;;;;;;;;;5052830;28;20025;-79
2022/03/13 11:10:31;;;;;;;11.88;8.10;;;;;;;;;;5051592;28;20112;-79
2022/03/13 11:12:58;;;;;;;13.00;8.27;;;;;;;;;;5052929;28;20021;-79
2022/03/13 11:15:29;;;;;;;12.65;8.23;;;;;;;;;;5052768;28;20021;-79
2022/03/13 11:17:56;;;;;;;11.85;8.20;;;;;;;;;;5052839;28;20499;-79
2022/03/13 11:20:23;;;;;;;11.80;8.70;;;;;;;;;;5052593;28;20025;-79
2022/03/13 11:22:49;;;;;;;11.55;8.27;;;;;;;;;;5054975;28;20063;-79
2022/03/13 11:25:16;;;;;;;14.27;8.90;;;;;;;;;;5056448;28;20025;-79
2022/03/13 11:27:43;;;;;;;13.60;9.13;;;;;;;;;;5056663;28;20036;-79
2022/03/13 11:30:13;;;;;;;13.02;9.43;;;;;;;;;;5055186;28;20021;-79
2022/03/13 11:32:44;;;;;;;13.27;9.32;;;;;;;;;;5056570;28;20036;-79
2022/03/13 11:35:16;;;;;;;12.02;8.05;;;;;;;;;;5056360;28;20025;-79
2022/03/13 11:37:45;;;;;;;9.75;7.80;;;;;;;;;;5056477;28;20118;-79
2022/03/13 11:40:12;;;;;;;11.73;8.48;;;;;;;;;;5056280;28;20384;-79
2022/03/13 11:42:47;;;;;;;13.48;8.52;;;;;;;;;;5056417;28;20052;-78
2022/03/13 11:45:34;;;;;;;10.70;7.35;;;;;;;;;;5056073;28;20051;-79
2022/03/13 11:48:08;;;;;;;10.00;7.63;;;;;;;;;;5054680;28;20077;-78
2022/03/13 11:50:54;;;;;;;12.60;8.00;;;;;;;;;;5055988;28;20025;-79
2022/03/13 11:53:22;;;;;;;9.48;6.63;;;;;;;;;;5055847;28;20053;-78
2022/03/13 11:56:00;;;;;;;15.38;10.00;;;;;;;;;;5055995;28;20082;-79
2022/03/13 11:58:39;;;;;;;18.67;13.30;;;;;;;;;;5055788;28;20024;-79
2022/03/13 12:01:07;;;;;;;11.52;7.65;;;;;;;;;;5055952;28;20108;-79
2022/03/13 12:03:33;;;;;;;13.68;7.72;;;;;;;;;;5055758;28;20032;-79
2022/03/13 12:06:00;;;;;;;10.48;6.60;;;;;;;;;;5055378;28;20113;-79
2022/03/13 12:08:46;;;;;;;10.32;7.35;;;;;;;;;;5055878;28;20550;-79
2022/03/13 12:11:38;;;;;;;12.52;7.40;;;;;;;;;;5055638;28;20429;-79
2022/03/13 12:14:07;;;;;;;8.75;6.75;;;;;;;;;;5051035;28;20037;-78
2022/03/13 12:16:33;;;;;;;9.57;6.90;;;;;;;;;;5055507;28;20419;-78
2022/03/13 12:18:59;;;;;;;13.63;10.48;;;;;;;;;;5056053;28;20065;-78
2022/03/13 12:21:26;;;;;;;11.35;8.10;;;;;;;;;;5055651;28;20039;-78
2022/03/13 12:23:52;;;;;;;9.60;7.30;;;;;;;;;;5055709;28;20040;-79
2022/03/13 12:26:23;;;;;;;11.00;8.00;;;;;;;;;;5055195;28;20115;-78
2022/03/13 12:28:55;;;;;;;9.55;7.07;;;;;;;;;;5055562;28;20029;-79
2022/03/13 12:31:21;;;;;;;11.13;6.97;;;;;;;;;;5055361;28;20028;-79
2022/03/13 12:33:53;;;;;;;9.60;7.63;;;;;;;;;;5054095;28;20145;-79
2022/03/13 12:36:20;;;;;;;9.88;7.22;;;;;;;;;;5056434;28;20119;-79
2022/03/13 12:38:51;;;;;;;10.35;7.70;;;;;;;;;;5055715;28;20035;-78
2022/03/13 12:41:17;;;;;;;10.43;7.28;;;;;;;;;;5055462;28;20112;-79
2022/03/13 12:43:56;;;;;;;11.45;8.30;;;;;;;;;;5055180;28;20458;-78
2022/03/13 12:46:23;;;;;;;12.52;7.80;;;;;;;;;;5055111;28;20116;-78
2022/03/13 12:48:55;;;;;;;11.18;7.72;;;;;;;;;;5054971;28;20120;-79
2022/03/13 12:51:41;;;;;;;10.48;7.00;;;;;;;;;;5054890;28;20056;-79
2022/03/13 12:54:07;;;;;;;9.70;7.63;;;;;;;;;;5054838;28;20033;-79
2022/03/13 12:56:42;;;;;;;10.18;7.38;;;;;;;;;;5054959;28;20017;-79
2022/03/13 12:59:09;;;;;;;10.90;8.13;;;;;;;;;;5054671;28;20476;-79
2022/03/13 13:01:36;;;;;;;17.35;11.73;;;;;;;;;;5054630;28;20033;-78
2022/03/13 13:04:02;;;;;;;20.13;14.18;;;;;;;;;;5054828;28;20081;-78
2022/03/13 13:06:36;;;;;;;13.27;9.55;;;;;;;;;;5054649;28;20091;-78
2022/03/13 13:09:03;;;;;;;9.68;7.72;;;;;;;;;;5054387;28;20040;-79
2022/03/13 13:11:29;;;;;;;11.98;8.82;;;;;;;;;;5053247;28;20025;-79
2022/03/13 13:13:57;;;;;;;10.05;7.30;;;;;;;;;;5054480;28;20455;-78
2022/03/13 13:16:23;;;;;;;9.38;7.18;;;;;;;;;;5054420;28;20041;-78
2022/03/13 13:18:49;;;;;;;11.20;7.13;;;;;;;;;;5054563;28;20029;-78
2022/03/13 13:21:15;;;;;;;14.20;9.57;;;;;;;;;;5054517;28;20059;-78
2022/03/13 13:23:42;;;;;;;16.58;11.25;;;;;;;;;;5054295;28;20029;-78
2022/03/13 13:26:08;;;;;;;11.85;8.52;;;;;;;;;;5054236;28;20032;-78
2022/03/13 13:28:35;;;;;;;14.30;10.52;;;;;;;;;;5054409;28;20096;-78
2022/03/13 13:31:01;;;;;;;32.53;20.98;;;;;;;;;;5054397;28;20078;-78
2022/03/13 13:33:34;;;;;;;15.73;9.50;;;;;;;;;;5052814;28;20471;-78
2022/03/13 13:36:02;;;;;;;12.93;9.48;;;;;;;;;;5054199;28;20036;-78
2022/03/13 13:38:28;;;;;;;16.45;10.75;;;;;;;;;;5054132;28;20029;-78
2022/03/13 13:41:13;;;;;;;16.10;10.18;;;;;;;;;;5054059;28;20079;-78
2022/03/13 13:43:46;;;;;;;11.07;6.60;;;;;;;;;;5052744;28;20230;-78
2022/03/13 13:46:13;;;;;;;11.23;8.50;;;;;;;;;;5053774;28;20110;-78
2022/03/13 13:48:39;;;;;;;9.07;6.10;;;;;;;;;;5055071;28;20062;-78
2022/03/13 13:51:19;;;;;;;9.40;6.97;;;;;;;;;;5053517;28;20028;-78
2022/03/13 13:54:09;;;;;;;16.15;10.63;;;;;;;;;;5053462;28;20051;-78
2022/03/13 13:56:54;;;;;;;10.00;6.38;;;;;;;;;;5053595;28;20071;-78
2022/03/13 13:59:26;;;;;;;8.77;6.57;;;;;;;;;;5053477;28;20025;-77
2022/03/13 14:01:53;;;;;;;8.13;5.68;;;;;;;;;;5053429;28;20025;-78
2022/03/13 14:04:19;;;;;;;13.55;8.90;;;;;;;;;;5053629;28;21303;-78
2022/03/13 14:06:46;;;;;;;12.77;8.25;;;;;;;;;;5053735;28;20040;-77
2022/03/13 14:09:13;;;;;;;12.93;8.48;;;;;;;;;;5053551;28;20083;-79
2022/03/13 14:11:40;;;;;;;11.18;8.57;;;;;;;;;;5053362;28;20032;-78
2022/03/13 14:14:07;;;;;;;14.90;10.27;;;;;;;;;;5053388;28;20507;-78
2022/03/13 14:16:34;;;;;;;16.85;11.50;;;;;;;;;;5053360;28;20468;-78
2022/03/13 14:19:00;;;;;;;16.00;10.50;;;;;;;;;;5053187;28;20029;-76
2022/03/13 14:21:26;;;;;;;13.52;9.20;;;;;;;;;;5052002;28;20025;-78
2022/03/13 14:23:52;;;;;;;17.38;10.90;;;;;;;;;;5053377;28;20056;-77
2022/03/13 14:26:19;;;;;;;16.83;11.40;;;;;;;;;;5053199;28;20093;-77